Pagrindinis puslapis
METAR-TAF:

METAR-TAF

Oro uostai :

Pula, Kroatija

platuma: 44-54N, ilguma: 013-55E, Aukštis: 63 m

Dabartinis oras

Ataskaita buvo paskelbta 16 minutes, ne 23:00 UTC
Vėjas 9 kt iš Rytų/Šiaurės Rytų
Temperatūra 15°C
Drėgmė 20%
Slėgis 1027 hPa
Matomumas 10 km arba daugiau
nėra debesų žemiau 1500 m ir nėra kamuolinių lietaus debesų

METAR: LDPL 072300Z 06009KT CAVOK 15/M08 Q1027

Laikas: 01:16 (23:16 UTC)

Prognozė

Ataskaita buvo paskelbta 5 valandos ir 51 minutes, ne 17:25 UTC
Prognozė galioja nuo 07 metu 18 UTC su 08 metu 18 UTC
Vėjas 6 kt iš Šiaurės
Matomumas 10 km arba daugiau
nėra debesų žemiau 1500 m ir nėra kamuolinių lietaus debesų
Tapsmas
nuo 07 metu 20 UTC su 07 metu 22 UTC
Vėjas 12 kt iš Rytų/Šiaurės Rytų
Tapsmas
nuo 08 metu 10 UTC su 08 metu 12 UTC
Vėjas 5 kt iš Rytų/Pietryčių
Tapsmas
nuo 08 metu 13 UTC su 08 metu 15 UTC
Vėjas 9 kt iš Vakarų/Šiaurės Vakarų

TAF: LDPL 071725Z 0718/0818 01006KT CAVOK TX21/0813Z TN11/0805Z BECMG 0720/0722 07012KT BECMG 0810/0812 12005KT BECMG 0813/0815 29009KT

Orai ataskaitas ir orų prognozės (METAR, TAF).

turimą stotys yra geltonos ir raudonos taškus žemėlapyje.

Perkelti pele per norėdami pamatyti stoties vardą.

Tada spustelėkite, norėdami matyti oro stebėjimo ir prognozės.

Norėdami pakeisti žemėlapį: spustelėkite ant žalios mygtukų su juodo kryžiaus žemyn,; žalią mygtuką su brūkšneliu, jei norite nutolinti; arba žalių rodyklių gretimoms žemėlapius.


METAR-TAF: